Terminal Aerodrome Forecast
Issued by NWS Cleveland, OH

Home | Current Version | Previous Version | Text Only | Print | Product List | Glossary Off
Versions: 1 2 3 4 5 6 7 8 9 10 11 12 13 14 15 16 17 18

837
FTUS41 KCLE 211730
TAFCAK
TAF
KCAK 211730Z 2118/2218 10008KT P6SM SCT040 BKN150
     FM220100 10006KT 5SM -TSRA OVC025CB
      TEMPO 2202/2205 1 1/2SM -TSRA OVC012CB
     FM220500 12008KT 5SM -SHRA OVC025
     FM220800 18006KT 5SM BR OVC015
     FM221500 20008KT P6SM OVC020=

USA.gov is the U.S. government's official web portal to all federal, state and local government web resources and services.